sensor_id;sensor_type;location;lat;lon;timestamp;temperature;humidity
21033;DHT22;10675;47.976;7.824;2024-02-26T00:00:10;9.50;79.00
21033;DHT22;10675;47.976;7.824;2024-02-26T00:02:36;9.40;79.60
21033;DHT22;10675;47.976;7.824;2024-02-26T00:05:08;9.40;80.90
21033;DHT22;10675;47.976;7.824;2024-02-26T00:07:33;9.30;83.80
21033;DHT22;10675;47.976;7.824;2024-02-26T00:09:59;9.30;84.10
21033;DHT22;10675;47.976;7.824;2024-02-26T00:12:25;9.20;85.80
21033;DHT22;10675;47.976;7.824;2024-02-26T00:14:50;9.10;88.50
21033;DHT22;10675;47.976;7.824;2024-02-26T00:17:16;9.00;91.80
21033;DHT22;10675;47.976;7.824;2024-02-26T00:19:41;8.90;91.50
21033;DHT22;10675;47.976;7.824;2024-02-26T00:22:07;8.90;93.40
21033;DHT22;10675;47.976;7.824;2024-02-26T00:24:32;8.80;93.50
21033;DHT22;10675;47.976;7.824;2024-02-26T00:26:59;8.80;95.90
21033;DHT22;10675;47.976;7.824;2024-02-26T00:29:24;8.70;97.90
21033;DHT22;10675;47.976;7.824;2024-02-26T00:31:51;8.70;99.90
21033;DHT22;10675;47.976;7.824;2024-02-26T00:34:16;8.70;99.90
21033;DHT22;10675;47.976;7.824;2024-02-26T00:36:42;8.50;99.90
21033;DHT22;10675;47.976;7.824;2024-02-26T00:39:08;8.40;99.90
21033;DHT22;10675;47.976;7.824;2024-02-26T00:41:37;8.40;99.90
21033;DHT22;10675;47.976;7.824;2024-02-26T00:44:03;8.40;99.90
21033;DHT22;10675;47.976;7.824;2024-02-26T00:46:28;8.40;99.90
21033;DHT22;10675;47.976;7.824;2024-02-26T00:48:54;8.40;99.90
21033;DHT22;10675;47.976;7.824;2024-02-26T00:51:19;8.30;99.90
21033;DHT22;10675;47.976;7.824;2024-02-26T00:53:45;8.20;99.90
21033;DHT22;10675;47.976;7.824;2024-02-26T00:56:10;8.30;99.90
21033;DHT22;10675;47.976;7.824;2024-02-26T00:58:36;8.30;99.90
21033;DHT22;10675;47.976;7.824;2024-02-26T01:01:01;8.20;99.90
21033;DHT22;10675;47.976;7.824;2024-02-26T01:03:28;8.30;99.90
21033;DHT22;10675;47.976;7.824;2024-02-26T01:05:54;8.40;99.90
21033;DHT22;10675;47.976;7.824;2024-02-26T01:08:19;8.50;99.90
21033;DHT22;10675;47.976;7.824;2024-02-26T01:10:45;8.50;99.90
21033;DHT22;10675;47.976;7.824;2024-02-26T01:13:11;8.50;99.90
21033;DHT22;10675;47.976;7.824;2024-02-26T01:15:36;8.50;99.90
21033;DHT22;10675;47.976;7.824;2024-02-26T01:18:02;8.50;99.90
21033;DHT22;10675;47.976;7.824;2024-02-26T01:20:27;8.50;99.90
21033;DHT22;10675;47.976;7.824;2024-02-26T01:22:53;8.50;99.90
21033;DHT22;10675;47.976;7.824;2024-02-26T01:25:18;8.50;99.90
21033;DHT22;10675;47.976;7.824;2024-02-26T01:27:44;8.60;99.90
21033;DHT22;10675;47.976;7.824;2024-02-26T01:30:10;8.50;99.90
21033;DHT22;10675;47.976;7.824;2024-02-26T01:32:36;8.60;99.90
21033;DHT22;10675;47.976;7.824;2024-02-26T01:35:02;8.60;99.90
21033;DHT22;10675;47.976;7.824;2024-02-26T01:37:32;8.60;99.90
21033;DHT22;10675;47.976;7.824;2024-02-26T01:39:58;8.50;99.90
21033;DHT22;10675;47.976;7.824;2024-02-26T01:42:23;8.50;99.90
21033;DHT22;10675;47.976;7.824;2024-02-26T01:44:49;8.60;99.90
21033;DHT22;10675;47.976;7.824;2024-02-26T01:47:15;8.60;99.90
21033;DHT22;10675;47.976;7.824;2024-02-26T01:49:41;8.60;99.90
21033;DHT22;10675;47.976;7.824;2024-02-26T01:52:07;8.70;99.90
21033;DHT22;10675;47.976;7.824;2024-02-26T01:54:37;8.60;99.90
21033;DHT22;10675;47.976;7.824;2024-02-26T01:57:04;8.60;99.90
21033;DHT22;10675;47.976;7.824;2024-02-26T01:59:30;8.60;99.90
21033;DHT22;10675;47.976;7.824;2024-02-26T02:01:59;8.60;99.90
21033;DHT22;10675;47.976;7.824;2024-02-26T02:04:27;8.60;99.90
21033;DHT22;10675;47.976;7.824;2024-02-26T02:06:53;8.60;99.90
21033;DHT22;10675;47.976;7.824;2024-02-26T02:09:19;8.60;99.90
21033;DHT22;10675;47.976;7.824;2024-02-26T02:11:44;8.80;99.90
21033;DHT22;10675;47.976;7.824;2024-02-26T02:14:10;8.80;99.90
21033;DHT22;10675;47.976;7.824;2024-02-26T02:16:36;8.70;99.90
21033;DHT22;10675;47.976;7.824;2024-02-26T02:19:01;8.70;99.90
21033;DHT22;10675;47.976;7.824;2024-02-26T02:21:27;8.70;99.90
21033;DHT22;10675;47.976;7.824;2024-02-26T02:23:52;8.70;99.90
21033;DHT22;10675;47.976;7.824;2024-02-26T02:26:18;8.70;99.90
21033;DHT22;10675;47.976;7.824;2024-02-26T02:28:45;8.70;99.90
21033;DHT22;10675;47.976;7.824;2024-02-26T02:31:11;8.70;99.90
21033;DHT22;10675;47.976;7.824;2024-02-26T02:33:37;8.80;99.90
21033;DHT22;10675;47.976;7.824;2024-02-26T02:36:03;8.80;99.90
21033;DHT22;10675;47.976;7.824;2024-02-26T02:38:29;8.90;99.90
21033;DHT22;10675;47.976;7.824;2024-02-26T02:40:55;8.90;99.90
21033;DHT22;10675;47.976;7.824;2024-02-26T02:43:21;8.80;99.90
21033;DHT22;10675;47.976;7.824;2024-02-26T02:45:47;8.70;99.90
21033;DHT22;10675;47.976;7.824;2024-02-26T02:48:12;8.60;99.90
21033;DHT22;10675;47.976;7.824;2024-02-26T02:50:38;8.60;99.90
21033;DHT22;10675;47.976;7.824;2024-02-26T02:53:04;8.60;99.90
21033;DHT22;10675;47.976;7.824;2024-02-26T02:55:29;8.50;99.90
21033;DHT22;10675;47.976;7.824;2024-02-26T02:57:55;8.50;99.90
21033;DHT22;10675;47.976;7.824;2024-02-26T03:00:21;8.40;99.90
21033;DHT22;10675;47.976;7.824;2024-02-26T03:02:48;8.40;99.90
21033;DHT22;10675;47.976;7.824;2024-02-26T03:05:14;8.40;99.90
21033;DHT22;10675;47.976;7.824;2024-02-26T03:07:40;8.30;99.90
21033;DHT22;10675;47.976;7.824;2024-02-26T03:10:06;8.30;99.90
21033;DHT22;10675;47.976;7.824;2024-02-26T03:12:32;8.40;99.90
21033;DHT22;10675;47.976;7.824;2024-02-26T03:14:57;8.30;99.90
21033;DHT22;10675;47.976;7.824;2024-02-26T03:17:23;8.20;99.90
21033;DHT22;10675;47.976;7.824;2024-02-26T03:19:49;8.10;99.90
21033;DHT22;10675;47.976;7.824;2024-02-26T03:22:18;8.00;99.90
21033;DHT22;10675;47.976;7.824;2024-02-26T03:24:44;8.00;99.90
21033;DHT22;10675;47.976;7.824;2024-02-26T03:27:09;8.00;99.90
21033;DHT22;10675;47.976;7.824;2024-02-26T03:29:36;8.00;99.90
21033;DHT22;10675;47.976;7.824;2024-02-26T03:32:02;8.10;99.90
21033;DHT22;10675;47.976;7.824;2024-02-26T03:34:28;8.00;99.90
21033;DHT22;10675;47.976;7.824;2024-02-26T03:36:54;8.00;99.90
21033;DHT22;10675;47.976;7.824;2024-02-26T03:39:19;7.90;99.90
21033;DHT22;10675;47.976;7.824;2024-02-26T03:41:45;7.90;99.90
21033;DHT22;10675;47.976;7.824;2024-02-26T03:44:10;8.00;99.90
21033;DHT22;10675;47.976;7.824;2024-02-26T03:46:36;7.90;99.90
21033;DHT22;10675;47.976;7.824;2024-02-26T03:49:01;7.90;99.90
21033;DHT22;10675;47.976;7.824;2024-02-26T03:51:27;7.80;99.90
21033;DHT22;10675;47.976;7.824;2024-02-26T03:53:59;7.90;99.90
21033;DHT22;10675;47.976;7.824;2024-02-26T03:56:25;7.90;99.90
21033;DHT22;10675;47.976;7.824;2024-02-26T03:58:51;7.80;99.90
21033;DHT22;10675;47.976;7.824;2024-02-26T04:01:16;7.80;99.90
21033;DHT22;10675;47.976;7.824;2024-02-26T04:03:42;7.90;99.90
21033;DHT22;10675;47.976;7.824;2024-02-26T04:06:09;7.80;99.90
21033;DHT22;10675;47.976;7.824;2024-02-26T04:08:43;7.70;99.90
21033;DHT22;10675;47.976;7.824;2024-02-26T04:11:09;7.70;99.90
21033;DHT22;10675;47.976;7.824;2024-02-26T04:13:35;7.70;99.90
21033;DHT22;10675;47.976;7.824;2024-02-26T04:16:00;7.70;99.90
21033;DHT22;10675;47.976;7.824;2024-02-26T04:18:29;7.70;99.90
21033;DHT22;10675;47.976;7.824;2024-02-26T04:20:54;7.70;99.90
21033;DHT22;10675;47.976;7.824;2024-02-26T04:23:20;7.60;99.90
21033;DHT22;10675;47.976;7.824;2024-02-26T04:25:45;7.50;99.90
21033;DHT22;10675;47.976;7.824;2024-02-26T04:28:12;7.60;99.90
21033;DHT22;10675;47.976;7.824;2024-02-26T04:30:37;7.70;99.90
21033;DHT22;10675;47.976;7.824;2024-02-26T04:33:03;7.70;99.90
21033;DHT22;10675;47.976;7.824;2024-02-26T04:35:29;7.70;99.90
21033;DHT22;10675;47.976;7.824;2024-02-26T04:37:54;7.70;99.90
21033;DHT22;10675;47.976;7.824;2024-02-26T04:40:20;7.70;99.90
21033;DHT22;10675;47.976;7.824;2024-02-26T04:42:45;7.70;99.90
21033;DHT22;10675;47.976;7.824;2024-02-26T04:45:11;7.70;99.90
21033;DHT22;10675;47.976;7.824;2024-02-26T04:47:37;7.70;99.90
21033;DHT22;10675;47.976;7.824;2024-02-26T04:50:02;7.70;99.90
21033;DHT22;10675;47.976;7.824;2024-02-26T04:52:28;7.70;99.90
21033;DHT22;10675;47.976;7.824;2024-02-26T04:54:54;7.70;99.90
21033;DHT22;10675;47.976;7.824;2024-02-26T04:57:20;7.70;99.90
21033;DHT22;10675;47.976;7.824;2024-02-26T04:59:46;7.50;99.90
21033;DHT22;10675;47.976;7.824;2024-02-26T05:02:12;7.60;99.90
21033;DHT22;10675;47.976;7.824;2024-02-26T05:04:38;7.60;99.90
21033;DHT22;10675;47.976;7.824;2024-02-26T05:07:03;7.60;99.90
21033;DHT22;10675;47.976;7.824;2024-02-26T05:09:29;7.50;99.90
21033;DHT22;10675;47.976;7.824;2024-02-26T05:11:55;7.60;99.90
21033;DHT22;10675;47.976;7.824;2024-02-26T05:14:20;7.70;99.90
21033;DHT22;10675;47.976;7.824;2024-02-26T05:16:47;7.60;99.90
21033;DHT22;10675;47.976;7.824;2024-02-26T05:19:12;7.60;99.90
21033;DHT22;10675;47.976;7.824;2024-02-26T05:21:38;7.50;99.90
21033;DHT22;10675;47.976;7.824;2024-02-26T05:24:04;7.50;99.90
21033;DHT22;10675;47.976;7.824;2024-02-26T05:26:29;7.50;99.90
21033;DHT22;10675;47.976;7.824;2024-02-26T05:28:55;7.50;99.90
21033;DHT22;10675;47.976;7.824;2024-02-26T05:31:25;7.50;99.90
21033;DHT22;10675;47.976;7.824;2024-02-26T05:33:50;7.60;99.90
21033;DHT22;10675;47.976;7.824;2024-02-26T05:36:20;7.50;99.90
21033;DHT22;10675;47.976;7.824;2024-02-26T05:38:47;7.50;99.90
21033;DHT22;10675;47.976;7.824;2024-02-26T05:41:15;7.40;99.90
21033;DHT22;10675;47.976;7.824;2024-02-26T05:43:41;7.50;99.90
21033;DHT22;10675;47.976;7.824;2024-02-26T05:46:06;7.50;99.90
21033;DHT22;10675;47.976;7.824;2024-02-26T05:48:32;7.50;99.90
21033;DHT22;10675;47.976;7.824;2024-02-26T05:50:57;7.40;99.90
21033;DHT22;10675;47.976;7.824;2024-02-26T05:53:23;7.50;99.90
21033;DHT22;10675;47.976;7.824;2024-02-26T05:55:48;7.50;99.90
21033;DHT22;10675;47.976;7.824;2024-02-26T05:58:14;7.50;99.90
21033;DHT22;10675;47.976;7.824;2024-02-26T06:00:39;7.50;99.90
21033;DHT22;10675;47.976;7.824;2024-02-26T06:03:05;7.60;99.90
21033;DHT22;10675;47.976;7.824;2024-02-26T06:05:31;7.60;99.90
21033;DHT22;10675;47.976;7.824;2024-02-26T06:07:56;8.10;99.90
21033;DHT22;10675;47.976;7.824;2024-02-26T06:10:22;7.70;99.90
21033;DHT22;10675;47.976;7.824;2024-02-26T06:12:47;7.80;99.90
21033;DHT22;10675;47.976;7.824;2024-02-26T06:15:13;7.70;99.90
21033;DHT22;10675;47.976;7.824;2024-02-26T06:17:39;7.80;99.90
21033;DHT22;10675;47.976;7.824;2024-02-26T06:20:04;7.80;99.90
21033;DHT22;10675;47.976;7.824;2024-02-26T06:22:31;7.90;99.90
21033;DHT22;10675;47.976;7.824;2024-02-26T06:24:57;7.80;99.90
21033;DHT22;10675;47.976;7.824;2024-02-26T06:27:23;7.90;99.90
21033;DHT22;10675;47.976;7.824;2024-02-26T06:29:49;7.90;99.90
21033;DHT22;10675;47.976;7.824;2024-02-26T06:32:15;8.00;99.90
21033;DHT22;10675;47.976;7.824;2024-02-26T06:34:40;8.00;99.90
21033;DHT22;10675;47.976;7.824;2024-02-26T06:37:08;8.00;99.90
21033;DHT22;10675;47.976;7.824;2024-02-26T06:39:33;8.00;99.90
21033;DHT22;10675;47.976;7.824;2024-02-26T06:41:59;8.00;99.90
21033;DHT22;10675;47.976;7.824;2024-02-26T06:44:27;8.00;99.90
21033;DHT22;10675;47.976;7.824;2024-02-26T06:46:58;8.00;99.90
21033;DHT22;10675;47.976;7.824;2024-02-26T06:49:24;7.90;99.90
21033;DHT22;10675;47.976;7.824;2024-02-26T06:51:49;7.90;99.90
21033;DHT22;10675;47.976;7.824;2024-02-26T06:54:15;8.00;99.90
21033;DHT22;10675;47.976;7.824;2024-02-26T06:56:40;8.00;99.90
21033;DHT22;10675;47.976;7.824;2024-02-26T06:59:06;8.10;99.90
21033;DHT22;10675;47.976;7.824;2024-02-26T07:01:31;8.00;99.90
21033;DHT22;10675;47.976;7.824;2024-02-26T07:03:57;8.10;99.90
21033;DHT22;10675;47.976;7.824;2024-02-26T07:06:22;8.10;99.90
21033;DHT22;10675;47.976;7.824;2024-02-26T07:08:48;8.10;99.90
21033;DHT22;10675;47.976;7.824;2024-02-26T07:11:13;8.00;99.90
21033;DHT22;10675;47.976;7.824;2024-02-26T07:13:39;8.10;99.90
21033;DHT22;10675;47.976;7.824;2024-02-26T07:16:05;8.00;99.90
21033;DHT22;10675;47.976;7.824;2024-02-26T07:18:30;8.10;99.90
21033;DHT22;10675;47.976;7.824;2024-02-26T07:20:56;8.20;99.90
21033;DHT22;10675;47.976;7.824;2024-02-26T07:23:22;8.30;99.90
21033;DHT22;10675;47.976;7.824;2024-02-26T07:25:47;8.30;99.90
21033;DHT22;10675;47.976;7.824;2024-02-26T07:28:14;8.40;99.90
21033;DHT22;10675;47.976;7.824;2024-02-26T07:30:40;8.20;99.90
21033;DHT22;10675;47.976;7.824;2024-02-26T07:33:05;8.50;99.90
21033;DHT22;10675;47.976;7.824;2024-02-26T07:35:33;8.50;99.90
21033;DHT22;10675;47.976;7.824;2024-02-26T07:37:59;8.50;99.90
21033;DHT22;10675;47.976;7.824;2024-02-26T07:40:24;8.60;99.90
21033;DHT22;10675;47.976;7.824;2024-02-26T07:42:50;8.60;99.90
21033;DHT22;10675;47.976;7.824;2024-02-26T07:45:16;8.70;99.90
21033;DHT22;10675;47.976;7.824;2024-02-26T07:47:45;8.80;99.90
21033;DHT22;10675;47.976;7.824;2024-02-26T07:50:11;8.90;99.90
21033;DHT22;10675;47.976;7.824;2024-02-26T07:52:37;9.00;99.90
21033;DHT22;10675;47.976;7.824;2024-02-26T07:55:03;9.00;99.90
21033;DHT22;10675;47.976;7.824;2024-02-26T07:57:28;9.10;99.90
21033;DHT22;10675;47.976;7.824;2024-02-26T07:59:54;9.10;99.90
21033;DHT22;10675;47.976;7.824;2024-02-26T08:02:21;9.10;99.90
21033;DHT22;10675;47.976;7.824;2024-02-26T08:04:47;9.30;99.90
21033;DHT22;10675;47.976;7.824;2024-02-26T08:07:12;9.30;99.90
21033;DHT22;10675;47.976;7.824;2024-02-26T08:09:38;9.40;99.90
21033;DHT22;10675;47.976;7.824;2024-02-26T08:12:04;9.40;99.90
21033;DHT22;10675;47.976;7.824;2024-02-26T08:14:30;9.50;99.90
21033;DHT22;10675;47.976;7.824;2024-02-26T08:16:57;9.50;99.90
21033;DHT22;10675;47.976;7.824;2024-02-26T08:19:23;9.70;99.90
21033;DHT22;10675;47.976;7.824;2024-02-26T08:21:48;9.80;99.90
21033;DHT22;10675;47.976;7.824;2024-02-26T08:24:14;9.90;99.90
21033;DHT22;10675;47.976;7.824;2024-02-26T08:26:39;10.00;99.90
21033;DHT22;10675;47.976;7.824;2024-02-26T08:29:05;10.10;99.90
21033;DHT22;10675;47.976;7.824;2024-02-26T08:31:30;10.00;99.90
21033;DHT22;10675;47.976;7.824;2024-02-26T08:33:56;10.20;99.90
21033;DHT22;10675;47.976;7.824;2024-02-26T08:36:21;10.30;99.90
21033;DHT22;10675;47.976;7.824;2024-02-26T08:38:47;10.40;99.90
21033;DHT22;10675;47.976;7.824;2024-02-26T08:41:13;10.40;99.90
21033;DHT22;10675;47.976;7.824;2024-02-26T08:43:38;10.40;99.90
21033;DHT22;10675;47.976;7.824;2024-02-26T08:46:04;10.50;99.90
21033;DHT22;10675;47.976;7.824;2024-02-26T08:48:33;10.60;99.90
21033;DHT22;10675;47.976;7.824;2024-02-26T08:50:58;10.70;99.90
21033;DHT22;10675;47.976;7.824;2024-02-26T08:53:24;10.90;99.90
21033;DHT22;10675;47.976;7.824;2024-02-26T08:55:52;10.90;99.90
21033;DHT22;10675;47.976;7.824;2024-02-26T08:58:17;10.80;99.90
21033;DHT22;10675;47.976;7.824;2024-02-26T09:00:43;10.50;99.90
21033;DHT22;10675;47.976;7.824;2024-02-26T09:03:08;10.60;99.90
21033;DHT22;10675;47.976;7.824;2024-02-26T09:05:34;10.60;99.90
21033;DHT22;10675;47.976;7.824;2024-02-26T09:08:00;10.20;99.90
21033;DHT22;10675;47.976;7.824;2024-02-26T09:10:25;10.30;99.90
21033;DHT22;10675;47.976;7.824;2024-02-26T09:12:51;10.20;99.90
21033;DHT22;10675;47.976;7.824;2024-02-26T09:15:16;10.10;99.90
21033;DHT22;10675;47.976;7.824;2024-02-26T09:17:42;10.00;99.90
21033;DHT22;10675;47.976;7.824;2024-02-26T09:20:08;10.10;99.90
21033;DHT22;10675;47.976;7.824;2024-02-26T09:22:34;10.10;99.90
21033;DHT22;10675;47.976;7.824;2024-02-26T09:25:03;10.10;99.90
21033;DHT22;10675;47.976;7.824;2024-02-26T09:27:29;10.10;99.90
21033;DHT22;10675;47.976;7.824;2024-02-26T09:29:56;10.10;99.90
21033;DHT22;10675;47.976;7.824;2024-02-26T09:32:21;10.50;99.90
21033;DHT22;10675;47.976;7.824;2024-02-26T09:34:47;10.20;99.90
21033;DHT22;10675;47.976;7.824;2024-02-26T09:37:12;10.30;99.90
21033;DHT22;10675;47.976;7.824;2024-02-26T09:39:38;10.30;99.90
21033;DHT22;10675;47.976;7.824;2024-02-26T09:42:05;10.30;99.90
21033;DHT22;10675;47.976;7.824;2024-02-26T09:44:33;10.40;99.90
21033;DHT22;10675;47.976;7.824;2024-02-26T09:47:04;10.50;99.90
21033;DHT22;10675;47.976;7.824;2024-02-26T09:49:30;10.40;99.90
21033;DHT22;10675;47.976;7.824;2024-02-26T09:51:57;10.60;99.90
21033;DHT22;10675;47.976;7.824;2024-02-26T09:54:24;10.70;99.90
21033;DHT22;10675;47.976;7.824;2024-02-26T09:56:52;10.70;99.90
21033;DHT22;10675;47.976;7.824;2024-02-26T09:59:19;10.50;99.90
21033;DHT22;10675;47.976;7.824;2024-02-26T10:01:46;10.50;99.90
21033;DHT22;10675;47.976;7.824;2024-02-26T10:04:13;10.50;99.90
21033;DHT22;10675;47.976;7.824;2024-02-26T10:06:39;10.60;99.90
21033;DHT22;10675;47.976;7.824;2024-02-26T10:09:05;10.70;99.90
21033;DHT22;10675;47.976;7.824;2024-02-26T10:11:35;10.80;99.90
21033;DHT22;10675;47.976;7.824;2024-02-26T10:14:03;10.80;99.90
21033;DHT22;10675;47.976;7.824;2024-02-26T10:16:28;10.90;99.90
21033;DHT22;10675;47.976;7.824;2024-02-26T10:18:54;10.90;99.90
21033;DHT22;10675;47.976;7.824;2024-02-26T10:21:20;10.80;99.90
21033;DHT22;10675;47.976;7.824;2024-02-26T10:23:47;10.80;99.90
21033;DHT22;10675;47.976;7.824;2024-02-26T10:26:13;10.90;99.90
21033;DHT22;10675;47.976;7.824;2024-02-26T10:28:40;10.90;99.90
21033;DHT22;10675;47.976;7.824;2024-02-26T10:31:06;11.30;99.90
21033;DHT22;10675;47.976;7.824;2024-02-26T10:33:36;11.30;99.90
21033;DHT22;10675;47.976;7.824;2024-02-26T10:36:05;11.40;99.90
21033;DHT22;10675;47.976;7.824;2024-02-26T10:38:32;11.60;99.90
21033;DHT22;10675;47.976;7.824;2024-02-26T10:40:58;11.90;99.90
21033;DHT22;10675;47.976;7.824;2024-02-26T10:43:25;12.10;99.90
21033;DHT22;10675;47.976;7.824;2024-02-26T10:45:50;12.10;99.90
21033;DHT22;10675;47.976;7.824;2024-02-26T10:48:16;12.00;99.90
21033;DHT22;10675;47.976;7.824;2024-02-26T10:50:43;11.90;99.90
21033;DHT22;10675;47.976;7.824;2024-02-26T10:53:15;11.90;99.90
21033;DHT22;10675;47.976;7.824;2024-02-26T10:55:49;11.90;99.90
21033;DHT22;10675;47.976;7.824;2024-02-26T10:58:18;12.00;99.90
21033;DHT22;10675;47.976;7.824;2024-02-26T11:00:45;12.10;99.90
21033;DHT22;10675;47.976;7.824;2024-02-26T11:03:13;12.20;99.90
21033;DHT22;10675;47.976;7.824;2024-02-26T11:05:41;12.60;99.90
21033;DHT22;10675;47.976;7.824;2024-02-26T11:08:07;12.80;99.90
21033;DHT22;10675;47.976;7.824;2024-02-26T11:10:33;12.80;99.90
21033;DHT22;10675;47.976;7.824;2024-02-26T11:13:00;13.10;99.90
21033;DHT22;10675;47.976;7.824;2024-02-26T11:15:27;13.50;99.90
21033;DHT22;10675;47.976;7.824;2024-02-26T11:17:55;13.70;99.90
21033;DHT22;10675;47.976;7.824;2024-02-26T11:20:21;13.60;99.90
21033;DHT22;10675;47.976;7.824;2024-02-26T11:22:48;13.80;99.90
21033;DHT22;10675;47.976;7.824;2024-02-26T11:25:13;13.60;99.90
21033;DHT22;10675;47.976;7.824;2024-02-26T11:27:56;13.70;99.90
21033;DHT22;10675;47.976;7.824;2024-02-26T11:30:24;13.90;99.90
21033;DHT22;10675;47.976;7.824;2024-02-26T11:32:52;14.20;99.90
21033;DHT22;10675;47.976;7.824;2024-02-26T11:35:19;14.20;99.90
21033;DHT22;10675;47.976;7.824;2024-02-26T11:37:54;14.10;99.90
21033;DHT22;10675;47.976;7.824;2024-02-26T11:40:23;14.10;99.90
21033;DHT22;10675;47.976;7.824;2024-02-26T11:42:49;13.70;99.90
21033;DHT22;10675;47.976;7.824;2024-02-26T11:48:25;13.90;99.90
21033;DHT22;10675;47.976;7.824;2024-02-26T11:50:53;13.60;99.90
21033;DHT22;10675;47.976;7.824;2024-02-26T11:53:26;13.60;99.90
21033;DHT22;10675;47.976;7.824;2024-02-26T11:58:41;13.60;99.90
21033;DHT22;10675;47.976;7.824;2024-02-26T12:01:36;13.30;99.90
21033;DHT22;10675;47.976;7.824;2024-02-26T12:04:04;13.40;99.90
21033;DHT22;10675;47.976;7.824;2024-02-26T12:06:30;13.20;99.90
21033;DHT22;10675;47.976;7.824;2024-02-26T12:08:56;13.40;99.90
21033;DHT22;10675;47.976;7.824;2024-02-26T12:11:22;13.60;99.90
21033;DHT22;10675;47.976;7.824;2024-02-26T12:13:48;13.50;99.90
21033;DHT22;10675;47.976;7.824;2024-02-26T12:16:36;13.60;99.90
21033;DHT22;10675;47.976;7.824;2024-02-26T12:19:06;13.50;99.90
21033;DHT22;10675;47.976;7.824;2024-02-26T12:21:36;13.70;99.90
21033;DHT22;10675;47.976;7.824;2024-02-26T12:24:14;13.80;99.90
21033;DHT22;10675;47.976;7.824;2024-02-26T12:26:41;13.80;99.90
21033;DHT22;10675;47.976;7.824;2024-02-26T12:29:08;13.70;99.90
21033;DHT22;10675;47.976;7.824;2024-02-26T12:31:34;13.90;99.90
21033;DHT22;10675;47.976;7.824;2024-02-26T12:34:00;13.90;99.90
21033;DHT22;10675;47.976;7.824;2024-02-26T12:36:26;14.10;99.90
21033;DHT22;10675;47.976;7.824;2024-02-26T12:38:52;14.10;99.90
21033;DHT22;10675;47.976;7.824;2024-02-26T12:41:17;13.80;99.90
21033;DHT22;10675;47.976;7.824;2024-02-26T12:43:43;14.20;99.90
21033;DHT22;10675;47.976;7.824;2024-02-26T12:46:08;13.90;99.90
21033;DHT22;10675;47.976;7.824;2024-02-26T12:48:34;13.90;99.90
21033;DHT22;10675;47.976;7.824;2024-02-26T12:51:00;13.90;99.90
21033;DHT22;10675;47.976;7.824;2024-02-26T12:53:26;14.10;99.90
21033;DHT22;10675;47.976;7.824;2024-02-26T12:55:53;14.30;99.90
21033;DHT22;10675;47.976;7.824;2024-02-26T12:58:20;14.70;99.90
21033;DHT22;10675;47.976;7.824;2024-02-26T13:00:46;14.60;99.90
21033;DHT22;10675;47.976;7.824;2024-02-26T13:03:13;14.80;99.90
21033;DHT22;10675;47.976;7.824;2024-02-26T13:05:39;14.90;99.90
21033;DHT22;10675;47.976;7.824;2024-02-26T13:08:05;14.80;99.50
21033;DHT22;10675;47.976;7.824;2024-02-26T13:10:31;14.70;99.90
21033;DHT22;10675;47.976;7.824;2024-02-26T13:12:57;14.80;99.80
21033;DHT22;10675;47.976;7.824;2024-02-26T13:15:22;14.80;99.70
21033;DHT22;10675;47.976;7.824;2024-02-26T13:17:49;14.50;99.40
21033;DHT22;10675;47.976;7.824;2024-02-26T13:20:28;14.50;99.30
21033;DHT22;10675;47.976;7.824;2024-02-26T13:23:20;14.50;99.60
21033;DHT22;10675;47.976;7.824;2024-02-26T13:25:45;14.70;99.80
21033;DHT22;10675;47.976;7.824;2024-02-26T13:28:15;14.90;97.90
21033;DHT22;10675;47.976;7.824;2024-02-26T13:30:51;15.00;97.60
21033;DHT22;10675;47.976;7.824;2024-02-26T13:33:17;15.20;95.60
21033;DHT22;10675;47.976;7.824;2024-02-26T13:35:44;15.10;95.00
21033;DHT22;10675;47.976;7.824;2024-02-26T13:38:10;15.40;94.80
21033;DHT22;10675;47.976;7.824;2024-02-26T13:40:37;15.60;94.90
21033;DHT22;10675;47.976;7.824;2024-02-26T13:43:04;15.60;94.00
21033;DHT22;10675;47.976;7.824;2024-02-26T13:45:29;15.50;93.90
21033;DHT22;10675;47.976;7.824;2024-02-26T13:48:02;15.40;94.20
21033;DHT22;10675;47.976;7.824;2024-02-26T13:50:28;15.60;94.00
21033;DHT22;10675;47.976;7.824;2024-02-26T13:52:54;15.70;94.10
21033;DHT22;10675;47.976;7.824;2024-02-26T13:55:21;15.60;93.30
21033;DHT22;10675;47.976;7.824;2024-02-26T13:57:48;15.70;94.50
21033;DHT22;10675;47.976;7.824;2024-02-26T14:00:14;16.00;93.80
21033;DHT22;10675;47.976;7.824;2024-02-26T14:02:40;16.00;93.60
21033;DHT22;10675;47.976;7.824;2024-02-26T14:05:06;16.50;92.60
21033;DHT22;10675;47.976;7.824;2024-02-26T14:07:32;16.70;92.30
21033;DHT22;10675;47.976;7.824;2024-02-26T14:09:58;16.50;91.00
21033;DHT22;10675;47.976;7.824;2024-02-26T14:12:23;16.90;90.60
21033;DHT22;10675;47.976;7.824;2024-02-26T14:14:49;17.00;90.10
21033;DHT22;10675;47.976;7.824;2024-02-26T14:17:15;16.90;89.50
21033;DHT22;10675;47.976;7.824;2024-02-26T14:19:41;16.50;89.60
21033;DHT22;10675;47.976;7.824;2024-02-26T14:22:11;16.20;90.70
21033;DHT22;10675;47.976;7.824;2024-02-26T14:24:37;16.10;91.20
21033;DHT22;10675;47.976;7.824;2024-02-26T14:27:02;16.40;91.30
21033;DHT22;10675;47.976;7.824;2024-02-26T14:29:29;16.70;90.10
21033;DHT22;10675;47.976;7.824;2024-02-26T14:31:54;16.60;90.00
21033;DHT22;10675;47.976;7.824;2024-02-26T14:34:21;16.40;87.60
21033;DHT22;10675;47.976;7.824;2024-02-26T14:36:47;16.40;88.40
21033;DHT22;10675;47.976;7.824;2024-02-26T14:39:12;16.10;88.10
21033;DHT22;10675;47.976;7.824;2024-02-26T14:41:39;16.00;88.60
21033;DHT22;10675;47.976;7.824;2024-02-26T14:44:04;15.50;90.10
21033;DHT22;10675;47.976;7.824;2024-02-26T14:46:30;15.50;90.20
21033;DHT22;10675;47.976;7.824;2024-02-26T14:48:55;15.50;90.60
21033;DHT22;10675;47.976;7.824;2024-02-26T14:51:22;15.50;91.00
21033;DHT22;10675;47.976;7.824;2024-02-26T14:53:47;15.10;91.80
21033;DHT22;10675;47.976;7.824;2024-02-26T14:56:13;15.30;92.20
21033;DHT22;10675;47.976;7.824;2024-02-26T14:58:38;15.30;92.20
21033;DHT22;10675;47.976;7.824;2024-02-26T15:01:04;15.40;91.90
21033;DHT22;10675;47.976;7.824;2024-02-26T15:03:30;15.30;92.20
21033;DHT22;10675;47.976;7.824;2024-02-26T15:05:55;15.70;92.10
21033;DHT22;10675;47.976;7.824;2024-02-26T15:08:21;15.50;92.30
21033;DHT22;10675;47.976;7.824;2024-02-26T15:10:46;15.60;92.70
21033;DHT22;10675;47.976;7.824;2024-02-26T15:13:15;15.90;91.80
21033;DHT22;10675;47.976;7.824;2024-02-26T15:15:41;16.20;91.60
21033;DHT22;10675;47.976;7.824;2024-02-26T15:18:07;16.40;91.10
21033;DHT22;10675;47.976;7.824;2024-02-26T15:20:33;16.90;90.50
21033;DHT22;10675;47.976;7.824;2024-02-26T15:22:59;16.60;90.00
21033;DHT22;10675;47.976;7.824;2024-02-26T15:25:24;16.20;90.80
21033;DHT22;10675;47.976;7.824;2024-02-26T15:27:50;16.20;91.20
21033;DHT22;10675;47.976;7.824;2024-02-26T15:30:15;16.00;91.60
21033;DHT22;10675;47.976;7.824;2024-02-26T15:32:41;16.00;91.60
21033;DHT22;10675;47.976;7.824;2024-02-26T15:35:09;16.10;91.70
21033;DHT22;10675;47.976;7.824;2024-02-26T15:37:35;16.00;92.10
21033;DHT22;10675;47.976;7.824;2024-02-26T15:40:00;16.10;92.50